sensor_id;sensor_type;location;lat;lon;timestamp;pressure;altitude;pressure_sealevel;temperature;humidity
64336;BME280;50672;53.362;-6.240;2023-02-15T00:00:04;101985.56;;;9.35;58.71
64336;BME280;50672;53.362;-6.240;2023-02-15T00:02:32;101989.28;;;9.34;58.85
64336;BME280;50672;53.362;-6.240;2023-02-15T00:04:59;101995.13;;;9.29;59.36
64336;BME280;50672;53.362;-6.240;2023-02-15T00:07:26;101989.13;;;9.26;59.58
64336;BME280;50672;53.362;-6.240;2023-02-15T00:09:53;102001.09;;;9.23;59.88
64336;BME280;50672;53.362;-6.240;2023-02-15T00:12:19;101995.94;;;9.20;60.20
64336;BME280;50672;53.362;-6.240;2023-02-15T00:14:47;101999.78;;;9.17;60.60
64336;BME280;50672;53.362;-6.240;2023-02-15T00:17:14;101996.22;;;9.17;60.61
64336;BME280;50672;53.362;-6.240;2023-02-15T00:19:40;101982.75;;;9.15;60.56
64336;BME280;50672;53.362;-6.240;2023-02-15T00:22:07;101973.75;;;9.15;60.83
64336;BME280;50672;53.362;-6.240;2023-02-15T00:24:34;101972.91;;;9.14;61.34
64336;BME280;50672;53.362;-6.240;2023-02-15T00:27:01;101971.03;;;9.15;61.27
64336;BME280;50672;53.362;-6.240;2023-02-15T00:29:28;101960.44;;;9.12;61.25
64336;BME280;50672;53.362;-6.240;2023-02-15T00:31:55;101966.03;;;9.10;61.64
64336;BME280;50672;53.362;-6.240;2023-02-15T00:34:25;101965.16;;;9.10;61.84
64336;BME280;50672;53.362;-6.240;2023-02-15T00:36:52;101958.00;;;9.09;62.03
64336;BME280;50672;53.362;-6.240;2023-02-15T00:39:19;101944.56;;;9.07;62.27
64336;BME280;50672;53.362;-6.240;2023-02-15T00:41:46;101947.28;;;9.07;62.26
64336;BME280;50672;53.362;-6.240;2023-02-15T00:44:13;101940.13;;;9.06;62.79
64336;BME280;50672;53.362;-6.240;2023-02-15T00:46:41;101927.53;;;9.05;62.82
64336;BME280;50672;53.362;-6.240;2023-02-15T00:49:08;101905.81;;;9.05;62.95
64336;BME280;50672;53.362;-6.240;2023-02-15T00:51:35;101912.22;;;9.04;63.13
64336;BME280;50672;53.362;-6.240;2023-02-15T00:54:01;101911.38;;;9.03;63.43
64336;BME280;50672;53.362;-6.240;2023-02-15T00:56:28;101895.22;;;9.02;63.84
64336;BME280;50672;53.362;-6.240;2023-02-15T00:58:55;101899.91;;;9.00;64.28
64336;BME280;50672;53.362;-6.240;2023-02-15T01:01:22;101913.50;;;9.00;64.39
64336;BME280;50672;53.362;-6.240;2023-02-15T01:03:50;101911.06;;;8.97;64.76
64336;BME280;50672;53.362;-6.240;2023-02-15T01:06:17;101900.34;;;8.95;64.96
64336;BME280;50672;53.362;-6.240;2023-02-15T01:08:45;101906.91;;;8.93;65.13
64336;BME280;50672;53.362;-6.240;2023-02-15T01:11:16;101906.91;;;8.93;65.00
64336;BME280;50672;53.362;-6.240;2023-02-15T01:13:54;101895.19;;;8.92;65.21
64336;BME280;50672;53.362;-6.240;2023-02-15T01:16:22;101890.88;;;8.89;65.67
64336;BME280;50672;53.362;-6.240;2023-02-15T01:18:50;101894.59;;;8.88;65.70
64336;BME280;50672;53.362;-6.240;2023-02-15T01:21:20;101896.59;;;8.86;65.98
64336;BME280;50672;53.362;-6.240;2023-02-15T01:23:47;101893.13;;;8.84;65.82
64336;BME280;50672;53.362;-6.240;2023-02-15T01:26:15;101890.56;;;8.83;65.99
64336;BME280;50672;53.362;-6.240;2023-02-15T01:28:41;101882.56;;;8.81;66.55
64336;BME280;50672;53.362;-6.240;2023-02-15T01:31:12;101867.00;;;8.83;66.51
64336;BME280;50672;53.362;-6.240;2023-02-15T01:33:39;101860.69;;;8.83;66.56
64336;BME280;50672;53.362;-6.240;2023-02-15T01:36:06;101866.28;;;8.81;66.50
64336;BME280;50672;53.362;-6.240;2023-02-15T01:38:34;101856.25;;;8.82;66.75
64336;BME280;50672;53.362;-6.240;2023-02-15T01:41:01;101850.13;;;8.80;67.28
64336;BME280;50672;53.362;-6.240;2023-02-15T01:43:53;101851.84;;;8.81;67.24
64336;BME280;50672;53.362;-6.240;2023-02-15T01:46:22;101846.13;;;8.84;67.11
64336;BME280;50672;53.362;-6.240;2023-02-15T01:49:00;101833.16;;;8.87;67.33
64336;BME280;50672;53.362;-6.240;2023-02-15T01:51:30;101830.31;;;8.89;67.49
64336;BME280;50672;53.362;-6.240;2023-02-15T01:54:02;101821.28;;;8.88;67.52
64336;BME280;50672;53.362;-6.240;2023-02-15T01:56:32;101819.59;;;8.87;67.85
64336;BME280;50672;53.362;-6.240;2023-02-15T01:59:04;101806.84;;;8.88;68.06
64336;BME280;50672;53.362;-6.240;2023-02-15T02:01:32;101804.28;;;8.86;68.00
64336;BME280;50672;53.362;-6.240;2023-02-15T02:04:29;101798.13;;;8.84;68.44
64336;BME280;50672;53.362;-6.240;2023-02-15T02:07:00;101789.25;;;8.82;68.79
64336;BME280;50672;53.362;-6.240;2023-02-15T02:09:27;101791.97;;;8.82;68.78
64336;BME280;50672;53.362;-6.240;2023-02-15T02:11:55;101794.84;;;8.81;68.90
64336;BME280;50672;53.362;-6.240;2023-02-15T02:14:22;101789.56;;;8.79;69.17
64336;BME280;50672;53.362;-6.240;2023-02-15T02:16:57;101777.66;;;8.80;69.29
64336;BME280;50672;53.362;-6.240;2023-02-15T02:39:52;101731.69;;;8.98;69.70
64336;BME280;50672;53.362;-6.240;2023-02-15T02:44:56;101706.13;;;9.01;69.74
64336;BME280;50672;53.362;-6.240;2023-02-15T02:47:36;101702.41;;;9.02;70.04
64336;BME280;50672;53.362;-6.240;2023-02-15T02:50:08;101711.41;;;9.02;70.06
64336;BME280;50672;53.362;-6.240;2023-02-15T02:52:44;101714.25;;;9.01;70.04
64336;BME280;50672;53.362;-6.240;2023-02-15T02:58:14;101719.84;;;8.99;70.32
64336;BME280;50672;53.362;-6.240;2023-02-15T03:00:53;101712.53;;;9.00;70.38
64336;BME280;50672;53.362;-6.240;2023-02-15T03:03:32;101699.97;;;8.99;70.62
64336;BME280;50672;53.362;-6.240;2023-02-15T03:06:12;101705.41;;;8.99;70.49
64336;BME280;50672;53.362;-6.240;2023-02-15T03:08:51;101699.97;;;8.99;70.74
64336;BME280;50672;53.362;-6.240;2023-02-15T03:11:20;101693.53;;;9.00;70.95
64336;BME280;50672;53.362;-6.240;2023-02-15T03:13:48;101687.09;;;9.01;70.86
64336;BME280;50672;53.362;-6.240;2023-02-15T03:16:17;101680.53;;;9.03;71.00
64336;BME280;50672;53.362;-6.240;2023-02-15T03:19:16;101681.38;;;9.04;70.92
64336;BME280;50672;53.362;-6.240;2023-02-15T03:21:48;101663.25;;;9.04;71.25
64336;BME280;50672;53.362;-6.240;2023-02-15T03:24:28;101659.41;;;9.07;71.29
64336;BME280;50672;53.362;-6.240;2023-02-15T03:26:56;101653.97;;;9.07;71.50
64336;BME280;50672;53.362;-6.240;2023-02-15T03:29:25;101651.38;;;9.05;71.56
64336;BME280;50672;53.362;-6.240;2023-02-15T03:31:58;101655.94;;;9.05;71.39
64336;BME280;50672;53.362;-6.240;2023-02-15T03:34:26;101659.66;;;9.04;71.67
64336;BME280;50672;53.362;-6.240;2023-02-15T03:39:44;101632.25;;;9.07;71.70
64336;BME280;50672;53.362;-6.240;2023-02-15T03:42:26;101632.09;;;9.09;71.79
64336;BME280;50672;53.362;-6.240;2023-02-15T03:45:02;101630.38;;;9.07;72.25
64336;BME280;50672;53.362;-6.240;2023-02-15T03:47:34;101623.06;;;9.08;72.11
64336;BME280;50672;53.362;-6.240;2023-02-15T03:50:30;101621.94;;;9.11;72.25
64336;BME280;50672;53.362;-6.240;2023-02-15T03:53:18;101617.91;;;9.15;72.08
64336;BME280;50672;53.362;-6.240;2023-02-15T03:55:48;101617.78;;;9.16;72.19
64336;BME280;50672;53.362;-6.240;2023-02-15T03:58:15;101612.19;;;9.18;72.39
64336;BME280;50672;53.362;-6.240;2023-02-15T04:01:11;101630.94;;;9.21;72.03
64336;BME280;50672;53.362;-6.240;2023-02-15T04:04:02;101621.47;;;9.25;72.43
64336;BME280;50672;53.362;-6.240;2023-02-15T04:06:29;101624.06;;;9.27;72.25
64336;BME280;50672;53.362;-6.240;2023-02-15T04:08:56;101626.50;;;9.30;72.11
64336;BME280;50672;53.362;-6.240;2023-02-15T04:11:42;101629.91;;;9.32;72.21
64336;BME280;50672;53.362;-6.240;2023-02-15T04:14:08;101624.31;;;9.33;72.28
64336;BME280;50672;53.362;-6.240;2023-02-15T04:16:54;101622.19;;;9.37;72.41
64336;BME280;50672;53.362;-6.240;2023-02-15T04:19:21;101626.47;;;9.39;72.67
64336;BME280;50672;53.362;-6.240;2023-02-15T04:22:06;101613.44;;;9.43;72.81
64336;BME280;50672;53.362;-6.240;2023-02-15T04:24:52;101612.13;;;9.47;72.59
64336;BME280;50672;53.362;-6.240;2023-02-15T04:27:40;101601.00;;;9.50;72.54
64336;BME280;50672;53.362;-6.240;2023-02-15T04:30:08;101599.81;;;9.53;72.54
64336;BME280;50672;53.362;-6.240;2023-02-15T04:32:36;101598.66;;;9.55;72.68
64336;BME280;50672;53.362;-6.240;2023-02-15T04:35:03;101592.94;;;9.58;72.64
64336;BME280;50672;53.362;-6.240;2023-02-15T04:37:32;101590.94;;;9.61;72.45
64336;BME280;50672;53.362;-6.240;2023-02-15T04:39:59;101586.34;;;9.61;72.55
64336;BME280;50672;53.362;-6.240;2023-02-15T04:42:26;101595.22;;;9.63;72.33
64336;BME280;50672;53.362;-6.240;2023-02-15T04:44:53;101601.19;;;9.67;72.63
64336;BME280;50672;53.362;-6.240;2023-02-15T04:47:20;101593.75;;;9.69;72.32
64336;BME280;50672;53.362;-6.240;2023-02-15T04:49:48;101592.63;;;9.71;72.31
64336;BME280;50672;53.362;-6.240;2023-02-15T04:52:15;101586.88;;;9.74;72.65
64336;BME280;50672;53.362;-6.240;2023-02-15T04:54:41;101584.16;;;9.74;72.28
64336;BME280;50672;53.362;-6.240;2023-02-15T04:57:08;101575.69;;;9.78;72.38
64336;BME280;50672;53.362;-6.240;2023-02-15T04:59:35;101565.66;;;9.78;72.66
64336;BME280;50672;53.362;-6.240;2023-02-15T05:02:02;101559.94;;;9.81;72.48
64336;BME280;50672;53.362;-6.240;2023-02-15T05:04:29;101558.06;;;9.82;72.30
64336;BME280;50672;53.362;-6.240;2023-02-15T05:06:56;101559.47;;;9.86;72.55
64336;BME280;50672;53.362;-6.240;2023-02-15T05:09:22;101548.44;;;9.87;72.86
64336;BME280;50672;53.362;-6.240;2023-02-15T05:11:49;101536.56;;;9.88;72.56
64336;BME280;50672;53.362;-6.240;2023-02-15T05:14:16;101561.06;;;9.88;72.86
64336;BME280;50672;53.362;-6.240;2023-02-15T05:16:43;101649.06;;;9.87;73.25
64336;BME280;50672;53.362;-6.240;2023-02-15T05:19:10;101694.19;;;9.80;73.07
64336;BME280;50672;53.362;-6.240;2023-02-15T05:21:37;101691.34;;;9.62;73.59
64336;BME280;50672;53.362;-6.240;2023-02-15T05:24:04;101699.53;;;9.43;73.74
64336;BME280;50672;53.362;-6.240;2023-02-15T05:26:51;101707.56;;;9.15;74.15
64336;BME280;50672;53.362;-6.240;2023-02-15T05:29:36;101704.38;;;8.90;74.30
64336;BME280;50672;53.362;-6.240;2023-02-15T05:32:03;101712.25;;;8.74;74.51
64336;BME280;50672;53.362;-6.240;2023-02-15T05:34:30;101732.50;;;8.60;74.45
64336;BME280;50672;53.362;-6.240;2023-02-15T05:36:57;101722.47;;;8.50;74.83
64336;BME280;50672;53.362;-6.240;2023-02-15T05:39:24;101726.69;;;8.43;74.74
64336;BME280;50672;53.362;-6.240;2023-02-15T05:41:51;101716.09;;;8.30;75.20
64336;BME280;50672;53.362;-6.240;2023-02-15T05:44:17;101719.19;;;8.26;75.71
64336;BME280;50672;53.362;-6.240;2023-02-15T05:46:44;101719.00;;;8.17;75.99
64336;BME280;50672;53.362;-6.240;2023-02-15T05:49:11;101722.28;;;8.11;76.23
64336;BME280;50672;53.362;-6.240;2023-02-15T05:51:38;101723.69;;;8.06;76.34
64336;BME280;50672;53.362;-6.240;2023-02-15T05:54:05;101714.94;;;8.02;76.65
64336;BME280;50672;53.362;-6.240;2023-02-15T05:56:31;101714.22;;;8.00;76.82
64336;BME280;50672;53.362;-6.240;2023-02-15T05:58:58;101725.06;;;8.00;77.20
64336;BME280;50672;53.362;-6.240;2023-02-15T06:01:25;101733.59;;;7.95;77.51
64336;BME280;50672;53.362;-6.240;2023-02-15T06:03:52;101733.72;;;7.94;77.70
64336;BME280;50672;53.362;-6.240;2023-02-15T06:06:18;101743.59;;;7.95;78.00
64336;BME280;50672;53.362;-6.240;2023-02-15T06:08:45;101744.31;;;7.97;78.23
64336;BME280;50672;53.362;-6.240;2023-02-15T06:11:12;101744.56;;;7.94;78.68
64336;BME280;50672;53.362;-6.240;2023-02-15T06:13:39;101741.84;;;7.94;78.78
64336;BME280;50672;53.362;-6.240;2023-02-15T06:16:06;101763.53;;;7.94;78.70
64336;BME280;50672;53.362;-6.240;2023-02-15T06:18:33;101767.97;;;7.95;79.15
64336;BME280;50672;53.362;-6.240;2023-02-15T06:21:00;101758.13;;;7.94;79.03
64336;BME280;50672;53.362;-6.240;2023-02-15T06:23:28;101743.59;;;7.95;79.14
64336;BME280;50672;53.362;-6.240;2023-02-15T06:25:55;101749.00;;;7.95;79.26
64336;BME280;50672;53.362;-6.240;2023-02-15T06:28:21;101751.00;;;7.93;79.52
64336;BME280;50672;53.362;-6.240;2023-02-15T06:30:48;101754.69;;;7.92;79.40
64336;BME280;50672;53.362;-6.240;2023-02-15T06:33:15;101756.56;;;7.91;79.39
64336;BME280;50672;53.362;-6.240;2023-02-15T06:35:42;101740.41;;;7.90;79.70
64336;BME280;50672;53.362;-6.240;2023-02-15T06:38:08;101753.53;;;7.84;79.68
64336;BME280;50672;53.362;-6.240;2023-02-15T06:40:35;101772.88;;;7.80;79.87
64336;BME280;50672;53.362;-6.240;2023-02-15T06:43:02;101755.06;;;7.77;79.67
64336;BME280;50672;53.362;-6.240;2023-02-15T06:45:29;101758.00;;;7.74;79.93
64336;BME280;50672;53.362;-6.240;2023-02-15T06:47:55;101752.84;;;7.71;79.93
64336;BME280;50672;53.362;-6.240;2023-02-15T06:50:22;101759.38;;;7.68;80.08
64336;BME280;50672;53.362;-6.240;2023-02-15T06:52:49;101763.97;;;7.68;80.27
64336;BME280;50672;53.362;-6.240;2023-02-15T06:55:21;101765.94;;;7.66;80.04
64336;BME280;50672;53.362;-6.240;2023-02-15T06:57:48;101769.03;;;7.61;80.05
64336;BME280;50672;53.362;-6.240;2023-02-15T07:00:16;101771.75;;;7.61;80.48
64336;BME280;50672;53.362;-6.240;2023-02-15T07:02:44;101778.16;;;7.60;80.39
64336;BME280;50672;53.362;-6.240;2023-02-15T07:05:11;101770.03;;;7.60;80.39
64336;BME280;50672;53.362;-6.240;2023-02-15T07:07:38;101770.16;;;7.59;80.50
64336;BME280;50672;53.362;-6.240;2023-02-15T07:10:05;101770.28;;;7.57;80.53
64336;BME280;50672;53.362;-6.240;2023-02-15T07:12:32;101767.84;;;7.54;80.48
64336;BME280;50672;53.362;-6.240;2023-02-15T07:15:10;101766.25;;;7.51;80.59
64336;BME280;50672;53.362;-6.240;2023-02-15T07:17:37;101759.38;;;7.47;80.57
64336;BME280;50672;53.362;-6.240;2023-02-15T07:20:06;101764.22;;;7.44;80.41
64336;BME280;50672;53.362;-6.240;2023-02-15T07:22:35;101758.06;;;7.42;80.61
64336;BME280;50672;53.362;-6.240;2023-02-15T07:25:07;101751.03;;;7.39;80.78
64336;BME280;50672;53.362;-6.240;2023-02-15T07:27:34;101752.28;;;7.35;80.75
64336;BME280;50672;53.362;-6.240;2023-02-15T07:30:02;101757.00;;;7.33;80.81
64336;BME280;50672;53.362;-6.240;2023-02-15T07:32:30;101748.13;;;7.31;80.80
64336;BME280;50672;53.362;-6.240;2023-02-15T07:34:58;101737.41;;;7.29;81.14
64336;BME280;50672;53.362;-6.240;2023-02-15T07:37:26;101734.84;;;7.28;80.82
64336;BME280;50672;53.362;-6.240;2023-02-15T07:39:53;101728.44;;;7.29;80.81
64336;BME280;50672;53.362;-6.240;2023-02-15T07:42:20;101722.28;;;7.27;80.88
64336;BME280;50672;53.362;-6.240;2023-02-15T07:44:47;101723.28;;;7.26;81.11
64336;BME280;50672;53.362;-6.240;2023-02-15T07:47:14;101720.72;;;7.24;81.00
64336;BME280;50672;53.362;-6.240;2023-02-15T07:49:41;101716.16;;;7.25;81.32
64336;BME280;50672;53.362;-6.240;2023-02-15T07:52:08;101709.75;;;7.26;81.27
64336;BME280;50672;53.362;-6.240;2023-02-15T07:54:35;101705.19;;;7.26;81.09
64336;BME280;50672;53.362;-6.240;2023-02-15T07:57:02;101707.03;;;7.26;81.26
64336;BME280;50672;53.362;-6.240;2023-02-15T07:59:29;101705.19;;;7.26;81.08
64336;BME280;50672;53.362;-6.240;2023-02-15T08:01:56;101708.03;;;7.25;81.27
64336;BME280;50672;53.362;-6.240;2023-02-15T08:04:24;101710.75;;;7.25;81.44
64336;BME280;50672;53.362;-6.240;2023-02-15T08:06:54;101721.31;;;7.28;81.33
64336;BME280;50672;53.362;-6.240;2023-02-15T08:09:21;101713.91;;;7.30;81.07
64336;BME280;50672;53.362;-6.240;2023-02-15T08:11:48;101729.91;;;7.33;81.02
64336;BME280;50672;53.362;-6.240;2023-02-15T08:14:18;101714.50;;;7.33;80.99
64336;BME280;50672;53.362;-6.240;2023-02-15T08:16:46;101710.69;;;7.36;81.08
64336;BME280;50672;53.362;-6.240;2023-02-15T08:19:26;101721.25;;;7.39;81.18
64336;BME280;50672;53.362;-6.240;2023-02-15T08:21:57;101724.69;;;7.41;81.26
64336;BME280;50672;53.362;-6.240;2023-02-15T08:24:29;101725.13;;;7.46;81.27
64336;BME280;50672;53.362;-6.240;2023-02-15T08:26:57;101735.75;;;7.49;81.00
64336;BME280;50672;53.362;-6.240;2023-02-15T08:29:27;101728.47;;;7.50;81.29
64336;BME280;50672;53.362;-6.240;2023-02-15T08:32:03;101739.28;;;7.50;80.84
64336;BME280;50672;53.362;-6.240;2023-02-15T08:34:32;101742.84;;;7.50;80.89
64336;BME280;50672;53.362;-6.240;2023-02-15T08:36:59;101749.03;;;7.52;81.09
64336;BME280;50672;53.362;-6.240;2023-02-15T08:39:26;101749.59;;;7.56;80.93
64336;BME280;50672;53.362;-6.240;2023-02-15T08:41:54;101756.47;;;7.60;80.63
64336;BME280;50672;53.362;-6.240;2023-02-15T08:44:21;101759.03;;;7.62;80.88
64336;BME280;50672;53.362;-6.240;2023-02-15T08:46:49;101761.53;;;7.65;80.66
64336;BME280;50672;53.362;-6.240;2023-02-15T08:49:18;101758.69;;;7.66;80.91
64336;BME280;50672;53.362;-6.240;2023-02-15T08:51:46;101757.56;;;7.69;80.69
64336;BME280;50672;53.362;-6.240;2023-02-15T08:54:16;101758.28;;;7.71;80.54
64336;BME280;50672;53.362;-6.240;2023-02-15T08:56:43;101757.28;;;7.72;80.86
64336;BME280;50672;53.362;-6.240;2023-02-15T08:59:16;101762.72;;;7.72;80.65
64336;BME280;50672;53.362;-6.240;2023-02-15T09:01:43;101781.81;;;7.70;80.35
64336;BME280;50672;53.362;-6.240;2023-02-15T09:04:11;101768.63;;;7.66;80.23
64336;BME280;50672;53.362;-6.240;2023-02-15T09:06:40;101789.00;;;7.60;80.29
64336;BME280;50672;53.362;-6.240;2023-02-15T09:09:07;101783.25;;;7.53;80.39
64336;BME280;50672;53.362;-6.240;2023-02-15T09:11:40;101783.50;;;7.50;80.31
64336;BME280;50672;53.362;-6.240;2023-02-15T09:14:10;101786.47;;;7.47;80.12
64336;BME280;50672;53.362;-6.240;2023-02-15T09:16:41;101789.31;;;7.46;79.99
64336;BME280;50672;53.362;-6.240;2023-02-15T09:19:08;101787.59;;;7.45;79.90
64336;BME280;50672;53.362;-6.240;2023-02-15T09:21:37;101790.16;;;7.46;79.59
64336;BME280;50672;53.362;-6.240;2023-02-15T09:24:06;101782.78;;;7.48;79.57
64336;BME280;50672;53.362;-6.240;2023-02-15T09:26:36;101780.91;;;7.49;79.63
64336;BME280;50672;53.362;-6.240;2023-02-15T09:29:03;101788.91;;;7.50;79.23
64336;BME280;50672;53.362;-6.240;2023-02-15T09:31:33;101781.66;;;7.51;79.38
64336;BME280;50672;53.362;-6.240;2023-02-15T09:34:00;101790.13;;;7.58;79.19
64336;BME280;50672;53.362;-6.240;2023-02-15T09:36:34;101796.47;;;7.68;79.06
64336;BME280;50672;53.362;-6.240;2023-02-15T09:39:14;101791.97;;;7.78;78.88
64336;BME280;50672;53.362;-6.240;2023-02-15T09:55:06;101799.72;;;8.97;77.57
64336;BME280;50672;53.362;-6.240;2023-02-15T10:27:32;101810.47;;;10.16;72.88
64336;BME280;50672;53.362;-6.240;2023-02-15T10:30:12;101811.81;;;10.49;72.55
64336;BME280;50672;53.362;-6.240;2023-02-15T10:33:00;101806.72;;;10.74;72.21
64336;BME280;50672;53.362;-6.240;2023-02-15T10:39:26;101808.91;;;10.98;71.38
64336;BME280;50672;53.362;-6.240;2023-02-15T10:45:06;101806.63;;;10.93;70.27
64336;BME280;50672;53.362;-6.240;2023-02-15T10:50:13;101809.34;;;10.93;69.55
64336;BME280;50672;53.362;-6.240;2023-02-15T10:53:09;101811.06;;;10.94;69.51
64336;BME280;50672;53.362;-6.240;2023-02-15T11:01:32;101800.75;;;10.88;68.62
64336;BME280;50672;53.362;-6.240;2023-02-15T11:06:56;101810.44;;;10.73;68.28
64336;BME280;50672;53.362;-6.240;2023-02-15T11:09:29;101807.63;;;10.65;68.39
64336;BME280;50672;53.362;-6.240;2023-02-15T11:12:00;101810.94;;;10.58;68.15
64336;BME280;50672;53.362;-6.240;2023-02-15T11:14:52;101816.28;;;10.50;68.28
64336;BME280;50672;53.362;-6.240;2023-02-15T11:17:25;101810.28;;;10.47;68.39
64336;BME280;50672;53.362;-6.240;2023-02-15T11:20:02;101816.31;;;10.40;68.32
64336;BME280;50672;53.362;-6.240;2023-02-15T11:22:33;101819.31;;;10.37;68.27
64336;BME280;50672;53.362;-6.240;2023-02-15T11:25:01;101821.44;;;10.34;68.23
64336;BME280;50672;53.362;-6.240;2023-02-15T11:27:31;101823.19;;;10.35;67.94
64336;BME280;50672;53.362;-6.240;2023-02-15T11:32:48;101826.34;;;10.40;68.19
64336;BME280;50672;53.362;-6.240;2023-02-15T11:37:48;101827.31;;;10.49;68.20
64336;BME280;50672;53.362;-6.240;2023-02-15T11:40:34;101827.63;;;10.46;68.10
64336;BME280;50672;53.362;-6.240;2023-02-15T11:43:06;101825.44;;;10.49;67.93
64336;BME280;50672;53.362;-6.240;2023-02-15T11:45:40;101833.19;;;10.54;68.18
64336;BME280;50672;53.362;-6.240;2023-02-15T11:48:10;101843.34;;;10.52;68.03
64336;BME280;50672;53.362;-6.240;2023-02-15T11:50:38;101834.31;;;10.51;68.04
64336;BME280;50672;53.362;-6.240;2023-02-15T11:53:16;101838.03;;;10.50;67.97
64336;BME280;50672;53.362;-6.240;2023-02-15T11:55:46;101839.19;;;10.48;67.60
64336;BME280;50672;53.362;-6.240;2023-02-15T12:00:52;101841.19;;;10.55;67.31
64336;BME280;50672;53.362;-6.240;2023-02-15T12:03:23;101844.06;;;10.54;67.44
64336;BME280;50672;53.362;-6.240;2023-02-15T12:05:57;101846.63;;;10.55;67.18
64336;BME280;50672;53.362;-6.240;2023-02-15T12:08:38;101850.66;;;10.51;66.92
64336;BME280;50672;53.362;-6.240;2023-02-15T12:11:11;101842.19;;;10.54;67.04
64336;BME280;50672;53.362;-6.240;2023-02-15T12:13:57;101842.03;;;10.56;66.83
64336;BME280;50672;53.362;-6.240;2023-02-15T12:16:27;101846.34;;;10.58;66.82
64336;BME280;50672;53.362;-6.240;2023-02-15T12:18:56;101837.00;;;10.61;66.20
64336;BME280;50672;53.362;-6.240;2023-02-15T12:24:20;101834.25;;;10.71;66.08
64336;BME280;50672;53.362;-6.240;2023-02-15T12:27:30;101831.63;;;10.79;66.07
64336;BME280;50672;53.362;-6.240;2023-02-15T12:30:06;101828.91;;;10.79;65.93
64336;BME280;50672;53.362;-6.240;2023-02-15T12:32:37;101840.81;;;10.78;65.53
64336;BME280;50672;53.362;-6.240;2023-02-15T12:35:22;101839.97;;;10.77;65.20
64336;BME280;50672;53.362;-6.240;2023-02-15T12:37:56;101839.81;;;10.79;65.34
64336;BME280;50672;53.362;-6.240;2023-02-15T12:40:26;101847.09;;;10.78;65.02
64336;BME280;50672;53.362;-6.240;2023-02-15T12:42:57;101833.91;;;10.84;65.07
64336;BME280;50672;53.362;-6.240;2023-02-15T12:45:28;101844.22;;;10.90;64.71
64336;BME280;50672;53.362;-6.240;2023-02-15T12:48:18;101846.47;;;10.94;64.49
64336;BME280;50672;53.362;-6.240;2023-02-15T12:51:08;101839.00;;;10.97;64.28
64336;BME280;50672;53.362;-6.240;2023-02-15T12:53:37;101832.44;;;10.89;64.44
64336;BME280;50672;53.362;-6.240;2023-02-15T12:56:07;101826.19;;;10.79;63.92
64336;BME280;50672;53.362;-6.240;2023-02-15T12:58:40;101834.56;;;10.68;63.80
64336;BME280;50672;53.362;-6.240;2023-02-15T13:01:19;101830.00;;;10.58;63.85
64336;BME280;50672;53.362;-6.240;2023-02-15T13:06:22;101830.31;;;10.55;64.04
64336;BME280;50672;53.362;-6.240;2023-02-15T13:08:50;101823.84;;;10.56;63.74
64336;BME280;50672;53.362;-6.240;2023-02-15T13:11:25;101822.28;;;10.54;63.51
64336;BME280;50672;53.362;-6.240;2023-02-15T13:13:58;101821.97;;;10.57;63.66
64336;BME280;50672;53.362;-6.240;2023-02-15T13:16:37;101818.38;;;10.66;63.57
64336;BME280;50672;53.362;-6.240;2023-02-15T13:19:10;101805.41;;;10.78;63.39
64336;BME280;50672;53.362;-6.240;2023-02-15T13:21:40;101808.34;;;10.94;62.75
64336;BME280;50672;53.362;-6.240;2023-02-15T13:24:18;101813.25;;;11.09;62.77
64336;BME280;50672;53.362;-6.240;2023-02-15T13:26:47;101809.72;;;11.26;62.49
64336;BME280;50672;53.362;-6.240;2023-02-15T13:29:29;101808.34;;;11.40;62.28
64336;BME280;50672;53.362;-6.240;2023-02-15T13:32:30;101805.13;;;11.45;61.71
64336;BME280;50672;53.362;-6.240;2023-02-15T13:34:59;101809.09;;;11.51;61.34
64336;BME280;50672;53.362;-6.240;2023-02-15T13:37:54;101807.16;;;11.61;60.89
64336;BME280;50672;53.362;-6.240;2023-02-15T13:40:25;101807.63;;;11.56;60.89
64336;BME280;50672;53.362;-6.240;2023-02-15T13:43:11;101806.84;;;11.46;60.55
64336;BME280;50672;53.362;-6.240;2023-02-15T13:48:26;101792.38;;;11.27;59.56
64336;BME280;50672;53.362;-6.240;2023-02-15T13:51:21;101800.91;;;11.33;59.63
64336;BME280;50672;53.362;-6.240;2023-02-15T13:57:35;101785.47;;;11.59;59.24
64336;BME280;50672;53.362;-6.240;2023-02-15T14:26:11;101773.47;;;11.16;58.47
64336;BME280;50672;53.362;-6.240;2023-02-15T14:31:11;101769.34;;;11.12;58.51
64336;BME280;50672;53.362;-6.240;2023-02-15T14:33:40;101777.09;;;11.17;58.53
64336;BME280;50672;53.362;-6.240;2023-02-15T14:36:16;101770.63;;;11.18;58.96
64336;BME280;50672;53.362;-6.240;2023-02-15T14:38:51;101780.66;;;11.17;59.01
64336;BME280;50672;53.362;-6.240;2023-02-15T14:41:40;101787.25;;;11.15;58.63
64336;BME280;50672;53.362;-6.240;2023-02-15T14:44:13;101790.00;;;11.15;58.63
64336;BME280;50672;53.362;-6.240;2023-02-15T14:46:53;101773.94;;;11.11;58.56
64336;BME280;50672;53.362;-6.240;2023-02-15T14:49:33;101787.09;;;11.16;58.57
64336;BME280;50672;53.362;-6.240;2023-02-15T14:52:20;101774.59;;;11.23;58.20
64336;BME280;50672;53.362;-6.240;2023-02-15T15:02:20;101790.63;;;11.26;58.26
64336;BME280;50672;53.362;-6.240;2023-02-15T15:05:37;101776.63;;;11.21;58.08
64336;BME280;50672;53.362;-6.240;2023-02-15T15:07:55;101773.09;;;11.11;58.02
64336;BME280;50672;53.362;-6.240;2023-02-15T15:12:54;101778.78;;;11.00;58.24
64336;BME280;50672;53.362;-6.240;2023-02-15T15:18:08;101777.97;;;10.89;58.37
64336;BME280;50672;53.362;-6.240;2023-02-15T15:20:45;101776.56;;;10.85;58.15
64336;BME280;50672;53.362;-6.240;2023-02-15T15:31:13;101762.59;;;10.70;58.07
64336;BME280;50672;53.362;-6.240;2023-02-15T15:50:33;101749.13;;;10.69;58.04
64336;BME280;50672;53.362;-6.240;2023-02-15T15:53:02;101758.00;;;10.71;58.31
64336;BME280;50672;53.362;-6.240;2023-02-15T15:55:32;101748.53;;;10.75;58.79
64336;BME280;50672;53.362;-6.240;2023-02-15T15:58:03;101752.34;;;10.82;58.48
64336;BME280;50672;53.362;-6.240;2023-02-15T16:00:39;101748.16;;;10.88;58.74
64336;BME280;50672;53.362;-6.240;2023-02-15T16:03:16;101747.25;;;10.97;59.06
64336;BME280;50672;53.362;-6.240;2023-02-15T16:05:46;101744.97;;;11.10;59.04